Terminal Aerodrome Forecast
Issued by NWS

Home | Current Version | Previous Version | Text Only | Print | Product List | Glossary On
Versions: 1 2 3 4 5 6 7 8 9 10 11 12 13 14 15 16 17 18 19 20 21 22 23 24 25 26 27 28 29 30 31 32 33 34 35 36 37 38 39 40 41 42 43 44 45 46 47 48 49
000
FTAK31 PANC 032101 AAA
TAFACD
TAF AMD
PACD 032101Z 0321/0418 31011KT 6SM -SHRA SCT006 OVC015
      TEMPO 0321/0324 3SM -SHRA BR BKN006
     FM040000 31013G20KT 6SM -SHRASN OVC015
     FM040600 29009KT P6SM BKN025=

USA.gov is the U.S. government's official web portal to all federal, state and local government web resources and services.